Time;durP1;ratioP1;P1;durP2;ratioP2;P2;SDS_P1;SDS_P2;PMS_P1;PMS_P2;Temp;Humidity;BMP_temperature;BMP_pressure;BME280_temperature;BME280_humidity;BME280_pressure;Samples;Min_cycle;Max_cycle;Signal;HPM_P1;HPM_P2
2022/07/29 00:00:14;;;;;;;;;;;;;;;;;;2106485;28;20373;-45
2022/07/29 00:01:15;;;;;;;;;;;;;;;;;;2106849;28;19989;-44
2022/07/29 00:02:20;;;;;;;;;;;;;;;;;;2106828;28;20019;-42
2022/07/29 00:03:21;;;;;;;;;;;;;;;;;;2106700;28;20011;-42
2022/07/29 00:04:22;;;;;;;;;;;;;;;;;;2106599;28;19982;-42
2022/07/29 00:05:23;;;;;;;;;;;;;;;;;;2106670;28;19997;-42
2022/07/29 00:06:24;;;;;;;;;;;;;;;;;;2106570;28;20047;-42
2022/07/29 00:07:25;;;;;;;;;;;;;;;;;;2106806;28;19924;-42
2022/07/29 00:08:26;;;;;;;;;;;;;;;;;;2106285;28;19932;-42
2022/07/29 00:09:27;;;;;;;;;;;;;;;;;;2106678;28;20360;-42
2022/07/29 00:10:28;;;;;;;;;;;;;;;;;;2106524;28;19993;-42
2022/07/29 00:11:28;;;;;;;;;;;;;;;;;;2101706;28;19928;-42
2022/07/29 00:12:29;;;;;;;;;;;;;;;;;;2098256;28;20328;-42
2022/07/29 00:13:30;;;;;;;;;;;;;;;;;;2098181;28;19928;-42
2022/07/29 00:14:32;;;;;;;;;;;;;;;;;;2098275;28;19925;-42
2022/07/29 00:15:33;;;;;;;;;;;;;;;;;;2098105;28;19955;-43
2022/07/29 00:16:34;;;;;;;;;;;;;;;;;;2098138;28;19924;-43
2022/07/29 00:17:35;;;;;;;;;;;;;;;;;;2098315;28;19924;-42
2022/07/29 00:18:36;;;;;;;;;;;;;;;;;;2098096;28;19931;-42
2022/07/29 00:19:37;;;;;;;;;;;;;;;;;;2098101;28;19928;-43
2022/07/29 00:20:38;;;;;;;;;;;;;;;;;;2098254;28;19966;-42
2022/07/29 00:21:39;;;;;;;;;;;;;;;;;;2098157;28;19924;-43
2022/07/29 00:22:39;;;;;;;;;;;;;;;;;;2098106;28;19925;-42
2022/07/29 00:23:40;;;;;;;;;;;;;;;;;;2098227;28;19935;-43
2022/07/29 00:24:41;;;;;;;;;;;;;;;;;;2097962;28;20297;-43
2022/07/29 00:25:42;;;;;;;;;;;;;;;;;;2098232;28;20106;-42
2022/07/29 00:26:43;;;;;;;;;;;;;;;;;;2097958;28;19928;-44
2022/07/29 00:27:45;;;;;;;;;;;;;;;;;;2097988;28;19931;-42
2022/07/29 00:28:46;;;;;;;;;;;;;;;;;;2098155;28;19932;-42
2022/07/29 00:29:47;;;;;;;;;;;;;;;;;;2098218;28;20324;-43
2022/07/29 00:30:48;;;;;;;;;;;;;;;;;;2098028;28;19925;-44
2022/07/29 00:31:49;;;;;;;;;;;;;;;;;;2097958;28;19925;-43
2022/07/29 00:32:50;;;;;;;;;;;;;;;;;;2097990;28;20011;-42
2022/07/29 00:33:51;;;;;;;;;;;;;;;;;;2098004;28;19955;-43
2022/07/29 00:36:11;;;;;;;;;;;;;;;;;;2097778;28;19934;-43
2022/07/29 00:37:11;;;;;;;;;;;;;;;;;;2098023;28;19931;-42
2022/07/29 00:38:12;;;;;;;;;;;;;;;;;;2097934;28;19924;-42
2022/07/29 00:39:13;;;;;;;;;;;;;;;;;;2098100;28;19924;-42
2022/07/29 00:40:14;;;;;;;;;;;;;;;;;;2097969;28;20009;-42
2022/07/29 00:41:15;;;;;;;;;;;;;;;;;;2098094;28;19924;-42
2022/07/29 00:42:16;;;;;;;;;;;;;;;;;;2098058;28;20011;-42
2022/07/29 00:43:17;;;;;;;;;;;;;;;;;;2097753;28;20360;-43
2022/07/29 00:44:18;;;;;;;;;;;;;;;;;;2097970;28;19925;-43
2022/07/29 00:45:19;;;;;;;;;;;;;;;;;;2097909;28;19924;-43
2022/07/29 00:46:20;;;;;;;;;;;;;;;;;;2097832;28;20361;-43
2022/07/29 00:47:20;;;;;;;;;;;;;;;;;;2097948;28;19928;-43
2022/07/29 00:48:21;;;;;;;;;;;;;;;;;;2097906;28;20395;-43
2022/07/29 00:49:22;;;;;;;;;;;;;;;;;;2097865;28;20334;-43
2022/07/29 00:50:23;;;;;;;;;;;;;;;;;;2097941;28;19925;-42
2022/07/29 00:51:24;;;;;;;;;;;;;;;;;;2097784;28;19924;-42
2022/07/29 00:52:25;;;;;;;;;;;;;;;;;;2097985;28;20011;-42
2022/07/29 00:53:26;;;;;;;;;;;;;;;;;;2098001;28;19929;-42
2022/07/29 00:54:26;;;;;;;;;;;;;;;;;;2097866;28;20381;-42
2022/07/29 00:55:27;;;;;;;;;;;;;;;;;;2097965;28;19996;-42
2022/07/29 00:56:28;;;;;;;;;;;;;;;;;;2097716;28;20393;-42
2022/07/29 00:57:29;;;;;;;;;;;;;;;;;;2097890;28;19933;-42
2022/07/29 00:58:30;;;;;;;;;;;;;;;;;;2097744;28;19936;-42
2022/07/29 00:59:31;;;;;;;;;;;;;;;;;;2097993;28;20393;-42
2022/07/29 01:00:36;;;;;;;;;;;;;;;;;;2097865;28;20373;-42
2022/07/29 01:01:37;;;;;;;;;;;;;;;;;;2097711;28;19925;-43
2022/07/29 01:02:38;;;;;;;;;;;;;;;;;;2097828;28;20015;-43
2022/07/29 01:03:39;;;;;;;;;;;;;;;;;;2098005;28;19973;-43
2022/07/29 01:04:40;;;;;;;;;;;;;;;;;;2100272;28;20415;-43
2022/07/29 01:05:41;;;;;;;;;;;;;;;;;;2106176;28;19928;-43
2022/07/29 01:06:50;;;;;;;;;;;;;;;;;;2106274;28;20014;-42
2022/07/29 01:07:51;;;;;;;;;;;;;;;;;;2106260;28;19924;-42
2022/07/29 01:08:52;;;;;;;;;;;;;;;;;;2106338;28;19924;-42
2022/07/29 01:09:53;;;;;;;;;;;;;;;;;;2106201;28;19931;-43
2022/07/29 01:10:54;;;;;;;;;;;;;;;;;;2106223;28;20090;-43
2022/07/29 01:11:55;;;;;;;;;;;;;;;;;;2097672;28;19933;-42
2022/07/29 01:12:56;;;;;;;;;;;;;;;;;;2097961;28;20363;-42
2022/07/29 01:13:56;;;;;;;;;;;;;;;;;;2097838;28;20021;-43
2022/07/29 01:14:57;;;;;;;;;;;;;;;;;;2097933;28;19964;-43
2022/07/29 01:15:58;;;;;;;;;;;;;;;;;;2097788;28;20066;-42
2022/07/29 01:17:01;;;;;;;;;;;;;;;;;;2097996;28;20070;-42
2022/07/29 01:18:02;;;;;;;;;;;;;;;;;;2097746;28;20368;-42
2022/07/29 01:19:03;;;;;;;;;;;;;;;;;;2097705;28;19924;-42
2022/07/29 01:20:04;;;;;;;;;;;;;;;;;;2097767;28;20194;-42
2022/07/29 01:21:05;;;;;;;;;;;;;;;;;;2097672;28;19974;-42
2022/07/29 01:22:05;;;;;;;;;;;;;;;;;;2097898;28;19925;-42
2022/07/29 01:23:06;;;;;;;;;;;;;;;;;;2098010;28;19925;-44
2022/07/29 01:24:07;;;;;;;;;;;;;;;;;;2097719;28;20035;-44
2022/07/29 01:25:08;;;;;;;;;;;;;;;;;;2097733;28;19925;-45
2022/07/29 01:26:09;;;;;;;;;;;;;;;;;;2097679;28;20011;-44
2022/07/29 01:27:10;;;;;;;;;;;;;;;;;;2097814;28;20078;-44
2022/07/29 01:28:11;;;;;;;;;;;;;;;;;;2097739;28;20460;-44
2022/07/29 01:29:12;;;;;;;;;;;;;;;;;;2097803;28;19925;-44
2022/07/29 01:30:13;;;;;;;;;;;;;;;;;;2097668;28;20403;-43
2022/07/29 01:31:14;;;;;;;;;;;;;;;;;;2097852;28;20003;-44
2022/07/29 01:32:21;;;;;;;;;;;;;;;;;;2097749;28;19972;-43
2022/07/29 01:34:48;;;;;;;;;;;;;;;;;;2097704;28;20028;-44
2022/07/29 01:35:49;;;;;;;;;;;;;;;;;;2097780;28;19949;-46
2022/07/29 01:36:50;;;;;;;;;;;;;;;;;;2097792;28;20061;-43
2022/07/29 01:37:51;;;;;;;;;;;;;;;;;;2097818;28;19932;-45
2022/07/29 01:38:52;;;;;;;;;;;;;;;;;;2097728;28;19925;-43
2022/07/29 01:39:53;;;;;;;;;;;;;;;;;;2097757;28;20023;-44
2022/07/29 01:40:54;;;;;;;;;;;;;;;;;;2097752;28;19924;-45
2022/07/29 01:41:54;;;;;;;;;;;;;;;;;;2097654;28;19979;-43
2022/07/29 01:42:55;;;;;;;;;;;;;;;;;;2097729;28;19979;-44
2022/07/29 01:43:56;;;;;;;;;;;;;;;;;;2097777;28;19936;-45
2022/07/29 01:44:57;;;;;;;;;;;;;;;;;;2097707;28;19936;-43
2022/07/29 01:46:00;;;;;;;;;;;;;;;;;;2097901;28;19963;-43
2022/07/29 01:47:01;;;;;;;;;;;;;;;;;;2097667;28;20015;-44
2022/07/29 01:48:01;;;;;;;;;;;;;;;;;;2097641;28;19924;-44
2022/07/29 01:49:02;;;;;;;;;;;;;;;;;;2097678;28;20262;-43
2022/07/29 01:50:03;;;;;;;;;;;;;;;;;;2097455;28;19931;-44
2022/07/29 01:51:04;;;;;;;;;;;;;;;;;;2097878;28;20003;-45
2022/07/29 01:52:05;;;;;;;;;;;;;;;;;;2097538;28;19932;-44
2022/07/29 01:53:06;;;;;;;;;;;;;;;;;;2097831;28;20441;-42
2022/07/29 01:54:07;;;;;;;;;;;;;;;;;;2097730;28;19932;-42
2022/07/29 01:55:08;;;;;;;;;;;;;;;;;;2098763;28;19925;-42
2022/07/29 01:56:09;;;;;;;;;;;;;;;;;;2099081;28;19968;-42
2022/07/29 01:57:10;;;;;;;;;;;;;;;;;;2099022;28;20010;-42
2022/07/29 01:58:10;;;;;;;;;;;;;;;;;;2099226;28;20397;-41
2022/07/29 01:59:11;;;;;;;;;;;;;;;;;;2099264;28;19932;-41
2022/07/29 02:00:12;;;;;;;;;;;;;;;;;;2099192;28;19924;-41
2022/07/29 02:01:13;;;;;;;;;;;;;;;;;;2104099;28;20258;-41
2022/07/29 02:02:14;;;;;;;;;;;;;;;;;;2107292;28;20261;-41
2022/07/29 02:03:15;;;;;;;;;;;;;;;;;;2107339;28;20011;-43
2022/07/29 02:04:15;;;;;;;;;;;;;;;;;;2107574;28;19924;-43
2022/07/29 02:05:30;;;;;;;;;;;;;;;;;;2107650;28;19928;-42
2022/07/29 02:06:31;;;;;;;;;;;;;;;;;;2107563;28;19932;-43
2022/07/29 02:07:31;;;;;;;;;;;;;;;;;;2107305;28;19924;-47
2022/07/29 02:08:32;;;;;;;;;;;;;;;;;;2107334;28;19924;-43
2022/07/29 02:09:33;;;;;;;;;;;;;;;;;;2107471;28;20369;-44
2022/07/29 02:10:34;;;;;;;;;;;;;;;;;;2107386;28;20019;-43
2022/07/29 02:11:35;;;;;;;;;;;;;;;;;;2101689;28;19931;-44
2022/07/29 02:12:36;;;;;;;;;;;;;;;;;;2099066;28;19926;-42
2022/07/29 02:13:37;;;;;;;;;;;;;;;;;;2099086;28;19932;-41
2022/07/29 02:14:37;;;;;;;;;;;;;;;;;;2098898;28;20435;-41
2022/07/29 02:15:38;;;;;;;;;;;;;;;;;;2098947;28;19929;-41
2022/07/29 02:16:39;;;;;;;;;;;;;;;;;;2098687;28;20011;-42
2022/07/29 02:17:40;;;;;;;;;;;;;;;;;;2098811;28;20389;-41
2022/07/29 02:18:41;;;;;;;;;;;;;;;;;;2098924;28;19974;-42
2022/07/29 02:19:42;;;;;;;;;;;;;;;;;;2098905;28;19935;-42
2022/07/29 02:20:43;;;;;;;;;;;;;;;;;;2098760;28;20496;-42
2022/07/29 02:21:44;;;;;;;;;;;;;;;;;;2098810;28;19960;-42
2022/07/29 02:22:45;;;;;;;;;;;;;;;;;;2099032;28;20011;-42
2022/07/29 02:23:46;;;;;;;;;;;;;;;;;;2098878;28;20140;-42
2022/07/29 02:24:51;;;;;;;;;;;;;;;;;;2099413;28;19932;-42
2022/07/29 02:25:52;;;;;;;;;;;;;;;;;;2098948;28;20186;-41
2022/07/29 02:26:53;;;;;;;;;;;;;;;;;;2098856;28;19986;-42
2022/07/29 02:27:54;;;;;;;;;;;;;;;;;;2099080;28;19932;-42
2022/07/29 02:28:55;;;;;;;;;;;;;;;;;;2099245;28;20352;-44
2022/07/29 02:29:56;;;;;;;;;;;;;;;;;;2098753;28;19924;-44
2022/07/29 02:30:56;;;;;;;;;;;;;;;;;;2098823;28;19951;-43
2022/07/29 02:31:57;;;;;;;;;;;;;;;;;;2098995;28;19935;-44
2022/07/29 02:32:58;;;;;;;;;;;;;;;;;;2099054;28;19955;-41
2022/07/29 02:33:59;;;;;;;;;;;;;;;;;;2098841;28;19936;-41
2022/07/29 02:35:00;;;;;;;;;;;;;;;;;;2098874;28;19925;-41
2022/07/29 02:36:01;;;;;;;;;;;;;;;;;;2098807;28;19935;-42
2022/07/29 02:37:02;;;;;;;;;;;;;;;;;;2098628;28;19978;-42
2022/07/29 02:39:22;;;;;;;;;;;;;;;;;;2099116;28;20034;-45
2022/07/29 02:40:23;;;;;;;;;;;;;;;;;;2098833;28;19969;-46
2022/07/29 02:41:24;;;;;;;;;;;;;;;;;;2098771;28;20447;-45
2022/07/29 02:42:25;;;;;;;;;;;;;;;;;;2098774;28;20007;-44
2022/07/29 02:43:26;;;;;;;;;;;;;;;;;;2098765;28;19931;-44
2022/07/29 02:44:27;;;;;;;;;;;;;;;;;;2098727;28;19958;-45
2022/07/29 02:45:33;;;;;;;;;;;;;;;;;;2098773;28;20085;-45
2022/07/29 02:46:34;;;;;;;;;;;;;;;;;;2098632;28;19925;-44
2022/07/29 02:47:35;;;;;;;;;;;;;;;;;;2098729;28;19974;-46
2022/07/29 02:48:42;;;;;;;;;;;;;;;;;;2098729;28;19936;-45
2022/07/29 02:49:43;;;;;;;;;;;;;;;;;;2098816;28;19959;-45
2022/07/29 02:50:44;;;;;;;;;;;;;;;;;;2098717;28;19939;-45
2022/07/29 02:51:45;;;;;;;;;;;;;;;;;;2098622;28;19936;-45
2022/07/29 02:52:46;;;;;;;;;;;;;;;;;;2098610;28;20365;-45
2022/07/29 02:53:46;;;;;;;;;;;;;;;;;;2098656;28;19932;-44
2022/07/29 02:54:47;;;;;;;;;;;;;;;;;;2098814;28;19956;-45
2022/07/29 02:55:48;;;;;;;;;;;;;;;;;;2098698;28;20008;-44
2022/07/29 02:56:52;;;;;;;;;;;;;;;;;;2098566;28;19924;-45
2022/07/29 02:57:53;;;;;;;;;;;;;;;;;;2098594;28;20296;-45
2022/07/29 02:58:54;;;;;;;;;;;;;;;;;;2107108;28;20019;-45
2022/07/29 02:59:55;;;;;;;;;;;;;;;;;;2107071;28;20019;-45
2022/07/29 03:00:56;;;;;;;;;;;;;;;;;;2106980;28;19959;-45
2022/07/29 03:01:57;;;;;;;;;;;;;;;;;;2106999;28;20266;-44
2022/07/29 03:02:58;;;;;;;;;;;;;;;;;;2106994;28;20015;-45
2022/07/29 03:03:59;;;;;;;;;;;;;;;;;;2107074;28;20011;-45
2022/07/29 03:05:00;;;;;;;;;;;;;;;;;;2107192;28;19931;-43
2022/07/29 03:06:01;;;;;;;;;;;;;;;;;;2106262;28;19968;-43
2022/07/29 03:07:02;;;;;;;;;;;;;;;;;;2106348;28;19924;-43
2022/07/29 03:08:03;;;;;;;;;;;;;;;;;;2107133;28;19928;-43
2022/07/29 03:09:04;;;;;;;;;;;;;;;;;;2106981;28;19924;-43
2022/07/29 03:10:09;;;;;;;;;;;;;;;;;;2107135;28;20285;-43
2022/07/29 03:11:11;;;;;;;;;;;;;;;;;;2104625;28;20400;-43
2022/07/29 03:12:12;;;;;;;;;;;;;;;;;;2098656;28;20352;-43
2022/07/29 03:13:13;;;;;;;;;;;;;;;;;;2098572;28;19924;-43
2022/07/29 03:14:13;;;;;;;;;;;;;;;;;;2098750;28;20381;-43
2022/07/29 03:15:15;;;;;;;;;;;;;;;;;;2098801;28;19928;-43
2022/07/29 03:16:16;;;;;;;;;;;;;;;;;;2098587;28;20015;-43
2022/07/29 03:17:17;;;;;;;;;;;;;;;;;;2098679;28;20330;-43
2022/07/29 03:18:17;;;;;;;;;;;;;;;;;;2098418;28;20023;-43
2022/07/29 03:19:18;;;;;;;;;;;;;;;;;;2098667;28;19924;-43
2022/07/29 03:20:19;;;;;;;;;;;;;;;;;;2098518;28;19974;-43
2022/07/29 03:21:20;;;;;;;;;;;;;;;;;;2098455;28;20020;-43
2022/07/29 03:22:21;;;;;;;;;;;;;;;;;;2098554;28;20007;-43
2022/07/29 03:23:23;;;;;;;;;;;;;;;;;;2099045;28;20003;-44
2022/07/29 03:24:24;;;;;;;;;;;;;;;;;;2098485;28;20207;-44
2022/07/29 03:25:26;;;;;;;;;;;;;;;;;;2098834;28;19999;-44
2022/07/29 03:26:27;;;;;;;;;;;;;;;;;;2098354;28;19925;-45
2022/07/29 03:27:28;;;;;;;;;;;;;;;;;;2098391;28;19931;-44
2022/07/29 03:28:29;;;;;;;;;;;;;;;;;;2098489;28;19985;-45
2022/07/29 03:29:30;;;;;;;;;;;;;;;;;;2098498;28;20378;-44
2022/07/29 03:30:34;;;;;;;;;;;;;;;;;;2098394;28;20361;-44
2022/07/29 03:31:35;;;;;;;;;;;;;;;;;;2098336;28;20015;-44
2022/07/29 03:32:36;;;;;;;;;;;;;;;;;;2098583;28;19924;-45
2022/07/29 03:33:37;;;;;;;;;;;;;;;;;;2098396;28;20305;-47
2022/07/29 03:34:38;;;;;;;;;;;;;;;;;;2098656;28;20061;-43
2022/07/29 03:35:39;;;;;;;;;;;;;;;;;;2098464;28;20019;-45
2022/07/29 03:36:40;;;;;;;;;;;;;;;;;;2098180;28;20019;-45
2022/07/29 03:37:41;;;;;;;;;;;;;;;;;;2098505;28;20301;-45
2022/07/29 03:38:41;;;;;;;;;;;;;;;;;;2098394;28;19970;-44
2022/07/29 03:39:42;;;;;;;;;;;;;;;;;;2098472;28;20022;-44
2022/07/29 03:40:43;;;;;;;;;;;;;;;;;;2098375;28;19964;-44
2022/07/29 03:41:44;;;;;;;;;;;;;;;;;;2098419;28;19967;-44
2022/07/29 03:42:45;;;;;;;;;;;;;;;;;;2098371;28;20293;-45
2022/07/29 03:43:46;;;;;;;;;;;;;;;;;;2098454;28;20366;-44
2022/07/29 03:44:50;;;;;;;;;;;;;;;;;;2098444;28;19932;-44
2022/07/29 03:45:50;;;;;;;;;;;;;;;;;;2098444;28;20066;-44
2022/07/29 03:46:51;;;;;;;;;;;;;;;;;;2098541;28;19989;-43
2022/07/29 03:47:52;;;;;;;;;;;;;;;;;;2098707;28;19925;-42
2022/07/29 03:48:59;;;;;;;;;;;;;;;;;;2098442;28;20027;-43
2022/07/29 03:49:59;;;;;;;;;;;;;;;;;;2098690;28;20373;-43
2022/07/29 03:51:00;;;;;;;;;;;;;;;;;;2098265;28;19931;-43
2022/07/29 03:52:01;;;;;;;;;;;;;;;;;;2098191;28;19929;-43
2022/07/29 03:53:02;;;;;;;;;;;;;;;;;;2098248;28;19928;-43
2022/07/29 03:54:03;;;;;;;;;;;;;;;;;;2106195;28;19928;-45
2022/07/29 03:55:10;;;;;;;;;;;;;;;;;;2106748;28;19931;-45
2022/07/29 03:56:10;;;;;;;;;;;;;;;;;;2106579;28;19963;-45
2022/07/29 03:57:11;;;;;;;;;;;;;;;;;;2106674;28;20361;-45
2022/07/29 03:58:12;;;;;;;;;;;;;;;;;;2106597;28;19935;-45
2022/07/29 03:59:13;;;;;;;;;;;;;;;;;;2106872;28;20568;-43
2022/07/29 04:00:15;;;;;;;;;;;;;;;;;;2106627;28;20019;-43
2022/07/29 04:01:17;;;;;;;;;;;;;;;;;;2106583;28;20011;-43
2022/07/29 04:02:18;;;;;;;;;;;;;;;;;;2106709;28;19924;-42
2022/07/29 04:03:22;;;;;;;;;;;;;;;;;;2106790;28;20277;-43
2022/07/29 04:04:23;;;;;;;;;;;;;;;;;;2106849;28;19924;-43
2022/07/29 04:05:24;;;;;;;;;;;;;;;;;;2106604;28;19994;-43
2022/07/29 04:06:25;;;;;;;;;;;;;;;;;;2106512;28;19924;-44
2022/07/29 04:07:26;;;;;;;;;;;;;;;;;;2106492;28;19924;-44
2022/07/29 04:08:27;;;;;;;;;;;;;;;;;;2106621;28;20396;-42
2022/07/29 04:09:28;;;;;;;;;;;;;;;;;;2106531;28;19931;-43
2022/07/29 04:10:28;;;;;;;;;;;;;;;;;;2106720;28;19962;-42
2022/07/29 04:11:32;;;;;;;;;;;;;;;;;;2101428;28;19935;-43
2022/07/29 04:12:33;;;;;;;;;;;;;;;;;;2098211;28;20019;-43
2022/07/29 04:13:34;;;;;;;;;;;;;;;;;;2098164;28;19924;-43
2022/07/29 04:14:34;;;;;;;;;;;;;;;;;;2098095;28;19924;-44
2022/07/29 04:15:35;;;;;;;;;;;;;;;;;;2098510;28;20147;-43
2022/07/29 04:16:36;;;;;;;;;;;;;;;;;;2097931;28;19925;-43
2022/07/29 04:17:37;;;;;;;;;;;;;;;;;;2097866;28;20016;-43
2022/07/29 04:18:38;;;;;;;;;;;;;;;;;;2098140;28;20015;-44
2022/07/29 04:19:39;;;;;;;;;;;;;;;;;;2098279;28;19924;-45
2022/07/29 04:20:40;;;;;;;;;;;;;;;;;;2098156;28;20212;-45
2022/07/29 04:21:41;;;;;;;;;;;;;;;;;;2098263;28;19924;-44
2022/07/29 04:22:41;;;;;;;;;;;;;;;;;;2097986;28;20239;-45
2022/07/29 04:23:44;;;;;;;;;;;;;;;;;;2098266;28;19935;-44
2022/07/29 04:24:48;;;;;;;;;;;;;;;;;;2098112;28;20198;-44
2022/07/29 04:25:49;;;;;;;;;;;;;;;;;;2097981;28;19931;-44
2022/07/29 04:26:49;;;;;;;;;;;;;;;;;;2097975;28;19963;-45
2022/07/29 04:28:00;;;;;;;;;;;;;;;;;;2098132;28;20007;-44
2022/07/29 04:29:01;;;;;;;;;;;;;;;;;;2098051;28;20023;-45
2022/07/29 04:30:02;;;;;;;;;;;;;;;;;;2098136;28;20015;-45
2022/07/29 04:31:02;;;;;;;;;;;;;;;;;;2098078;28;20003;-44
2022/07/29 04:32:03;;;;;;;;;;;;;;;;;;2101953;28;19928;-45
2022/07/29 04:33:04;;;;;;;;;;;;;;;;;;2106419;28;19946;-45
2022/07/29 04:34:05;;;;;;;;;;;;;;;;;;2106670;28;19924;-44
2022/07/29 04:35:06;;;;;;;;;;;;;;;;;;2106340;28;20365;-44
2022/07/29 04:36:07;;;;;;;;;;;;;;;;;;2106486;28;19977;-43
2022/07/29 04:37:28;;;;;;;;;;;;;;;;;;2106439;28;19924;-43
2022/07/29 04:38:29;;;;;;;;;;;;;;;;;;2106380;28;20293;-43
2022/07/29 04:39:30;;;;;;;;;;;;;;;;;;2106555;28;19931;-43
2022/07/29 04:40:32;;;;;;;;;;;;;;;;;;2106503;28;19924;-43
2022/07/29 04:41:33;;;;;;;;;;;;;;;;;;2106235;28;20379;-43
2022/07/29 04:42:34;;;;;;;;;;;;;;;;;;2106965;28;20323;-45
2022/07/29 04:43:35;;;;;;;;;;;;;;;;;;2106662;28;19928;-45
2022/07/29 04:44:37;;;;;;;;;;;;;;;;;;2106560;28;19924;-45
2022/07/29 04:45:40;;;;;;;;;;;;;;;;;;2106303;28;20387;-45
2022/07/29 04:46:41;;;;;;;;;;;;;;;;;;2106348;28;20022;-46
2022/07/29 04:47:42;;;;;;;;;;;;;;;;;;2106316;28;20343;-45
2022/07/29 04:48:43;;;;;;;;;;;;;;;;;;2106264;28;20020;-46
2022/07/29 04:49:43;;;;;;;;;;;;;;;;;;2105991;28;19924;-45
2022/07/29 04:50:44;;;;;;;;;;;;;;;;;;2106265;28;19974;-45
2022/07/29 04:51:45;;;;;;;;;;;;;;;;;;2106297;28;20010;-46
2022/07/29 04:52:46;;;;;;;;;;;;;;;;;;2106192;28;20270;-45
2022/07/29 04:53:47;;;;;;;;;;;;;;;;;;2106424;28;19981;-46
2022/07/29 04:54:48;;;;;;;;;;;;;;;;;;2106251;28;20014;-47
2022/07/29 04:55:49;;;;;;;;;;;;;;;;;;2106322;28;20012;-45
2022/07/29 04:56:50;;;;;;;;;;;;;;;;;;2106772;28;19924;-43
2022/07/29 04:57:51;;;;;;;;;;;;;;;;;;2106223;28;20423;-44
2022/07/29 04:58:52;;;;;;;;;;;;;;;;;;2106114;28;19928;-43
2022/07/29 04:59:53;;;;;;;;;;;;;;;;;;2106461;28;20007;-43
2022/07/29 05:00:54;;;;;;;;;;;;;;;;;;2106455;28;19947;-43
2022/07/29 05:01:54;;;;;;;;;;;;;;;;;;2106002;28;20052;-43
2022/07/29 05:02:55;;;;;;;;;;;;;;;;;;2106321;28;19949;-43
2022/07/29 05:03:56;;;;;;;;;;;;;;;;;;2106244;28;19924;-43
2022/07/29 05:05:01;;;;;;;;;;;;;;;;;;2106389;28;19946;-43
2022/07/29 05:06:01;;;;;;;;;;;;;;;;;;2106139;28;20097;-43
2022/07/29 05:07:02;;;;;;;;;;;;;;;;;;2106331;28;19924;-43
2022/07/29 05:08:03;;;;;;;;;;;;;;;;;;2106163;28;20420;-43
2022/07/29 05:09:04;;;;;;;;;;;;;;;;;;2106627;28;19960;-46
2022/07/29 05:10:05;;;;;;;;;;;;;;;;;;2106365;28;20004;-45
2022/07/29 05:11:06;;;;;;;;;;;;;;;;;;2104803;28;19924;-44
2022/07/29 05:12:12;;;;;;;;;;;;;;;;;;2097751;28;20286;-44
2022/07/29 05:13:13;;;;;;;;;;;;;;;;;;2098014;28;19924;-44
2022/07/29 05:14:14;;;;;;;;;;;;;;;;;;2097817;28;19940;-43
2022/07/29 05:15:17;;;;;;;;;;;;;;;;;;2097832;28;19948;-42
2022/07/29 05:16:18;;;;;;;;;;;;;;;;;;2097833;28;20012;-42
2022/07/29 05:17:19;;;;;;;;;;;;;;;;;;2097702;28;19924;-42
2022/07/29 05:18:19;;;;;;;;;;;;;;;;;;2097839;28;20004;-42
2022/07/29 05:19:20;;;;;;;;;;;;;;;;;;2097819;28;19966;-42
2022/07/29 05:20:26;;;;;;;;;;;;;;;;;;2097879;28;20063;-44
2022/07/29 05:21:27;;;;;;;;;;;;;;;;;;2098292;28;20003;-42
2022/07/29 05:22:27;;;;;;;;;;;;;;;;;;2098113;28;20006;-44
2022/07/29 05:23:28;;;;;;;;;;;;;;;;;;2097718;28;19924;-44
2022/07/29 05:24:29;;;;;;;;;;;;;;;;;;2097908;28;19962;-43
2022/07/29 05:25:31;;;;;;;;;;;;;;;;;;2097948;28;20027;-43
2022/07/29 05:26:44;;;;;;;;;;;;;;;;;;2098825;28;19925;-45
2022/07/29 05:27:45;;;;;;;;;;;;;;;;;;2106073;28;20378;-47
2022/07/29 05:28:46;;;;;;;;;;;;;;;;;;2106042;28;20468;-46
2022/07/29 05:29:47;;;;;;;;;;;;;;;;;;2106526;28;19930;-45
2022/07/29 05:30:48;;;;;;;;;;;;;;;;;;2107570;28;20007;-45
2022/07/29 05:31:49;;;;;;;;;;;;;;;;;;2107556;28;19947;-46
2022/07/29 05:32:49;;;;;;;;;;;;;;;;;;2107584;28;19924;-45
2022/07/29 05:33:50;;;;;;;;;;;;;;;;;;2107785;28;19924;-45
2022/07/29 05:34:51;;;;;;;;;;;;;;;;;;2107613;28;20278;-45
2022/07/29 05:35:52;;;;;;;;;;;;;;;;;;2108139;28;19930;-43
2022/07/29 05:36:56;;;;;;;;;;;;;;;;;;2107499;28;19928;-44
2022/07/29 05:37:57;;;;;;;;;;;;;;;;;;2107637;28;19928;-44
2022/07/29 05:38:58;;;;;;;;;;;;;;;;;;2107714;28;19959;-45
2022/07/29 05:39:59;;;;;;;;;;;;;;;;;;2107768;28;19924;-44
2022/07/29 05:40:59;;;;;;;;;;;;;;;;;;2107635;28;20023;-46
2022/07/29 05:42:00;;;;;;;;;;;;;;;;;;2107798;28;19971;-46
2022/07/29 05:43:01;;;;;;;;;;;;;;;;;;2107499;28;19975;-46
2022/07/29 05:44:02;;;;;;;;;;;;;;;;;;2107913;28;19932;-44
2022/07/29 05:45:03;;;;;;;;;;;;;;;;;;2107900;28;19924;-45
2022/07/29 05:46:04;;;;;;;;;;;;;;;;;;2107141;28;20319;-45
2022/07/29 05:47:06;;;;;;;;;;;;;;;;;;2107663;28;19928;-46
2022/07/29 05:48:07;;;;;;;;;;;;;;;;;;2107565;28;20038;-45
2022/07/29 05:49:08;;;;;;;;;;;;;;;;;;2107632;28;19953;-44
2022/07/29 05:50:08;;;;;;;;;;;;;;;;;;2107615;28;19940;-44
2022/07/29 05:51:09;;;;;;;;;;;;;;;;;;2107326;28;19928;-45
2022/07/29 05:52:10;;;;;;;;;;;;;;;;;;2107482;28;19931;-44
2022/07/29 05:53:11;;;;;;;;;;;;;;;;;;2107482;28;19925;-44
2022/07/29 05:54:20;;;;;;;;;;;;;;;;;;2107399;28;19924;-45
2022/07/29 05:55:21;;;;;;;;;;;;;;;;;;2107456;28;19924;-44
2022/07/29 05:56:23;;;;;;;;;;;;;;;;;;2107371;28;20043;-44
2022/07/29 05:57:24;;;;;;;;;;;;;;;;;;2107308;28;19974;-44
2022/07/29 05:58:24;;;;;;;;;;;;;;;;;;2107531;28;19955;-44
2022/07/29 05:59:26;;;;;;;;;;;;;;;;;;2107410;28;19947;-44
2022/07/29 06:00:30;;;;;;;;;;;;;;;;;;2107391;28;19931;-44
2022/07/29 06:01:31;;;;;;;;;;;;;;;;;;2107586;28;19984;-45
2022/07/29 06:02:32;;;;;;;;;;;;;;;;;;2107563;28;20003;-42
2022/07/29 06:03:34;;;;;;;;;;;;;;;;;;2107505;28;20011;-44
2022/07/29 06:04:35;;;;;;;;;;;;;;;;;;2107502;28;20308;-42
2022/07/29 06:05:36;;;;;;;;;;;;;;;;;;2107362;28;19947;-43
2022/07/29 06:06:37;;;;;;;;;;;;;;;;;;2107159;28;19924;-43
2022/07/29 06:07:37;;;;;;;;;;;;;;;;;;2107366;28;20369;-42
2022/07/29 06:08:39;;;;;;;;;;;;;;;;;;2107636;28;19963;-44
2022/07/29 06:09:40;;;;;;;;;;;;;;;;;;2107255;28;20357;-44
2022/07/29 06:10:41;;;;;;;;;;;;;;;;;;2107360;28;19931;-42
2022/07/29 06:11:42;;;;;;;;;;;;;;;;;;2100736;28;20460;-44
2022/07/29 06:12:43;;;;;;;;;;;;;;;;;;2099243;28;19929;-42
2022/07/29 06:13:44;;;;;;;;;;;;;;;;;;2098956;28;20551;-42
2022/07/29 06:14:45;;;;;;;;;;;;;;;;;;2099068;28;19924;-43
2022/07/29 06:15:46;;;;;;;;;;;;;;;;;;2098936;28;20051;-42
2022/07/29 06:16:47;;;;;;;;;;;;;;;;;;2099052;28;19997;-42
2022/07/29 06:17:48;;;;;;;;;;;;;;;;;;2098884;28;19932;-43
2022/07/29 06:19:00;;;;;;;;;;;;;;;;;;2098907;28;20374;-43
2022/07/29 06:20:00;;;;;;;;;;;;;;;;;;2099111;28;20011;-43
2022/07/29 06:21:01;;;;;;;;;;;;;;;;;;2098869;28;20376;-43
2022/07/29 06:22:02;;;;;;;;;;;;;;;;;;2098837;28;20441;-43
2022/07/29 06:23:04;;;;;;;;;;;;;;;;;;2099003;28;19932;-44
2022/07/29 06:24:05;;;;;;;;;;;;;;;;;;2099352;28;19925;-46
2022/07/29 06:25:06;;;;;;;;;;;;;;;;;;2099039;28;20321;-45
2022/07/29 06:26:07;;;;;;;;;;;;;;;;;;2099311;28;19936;-45
2022/07/29 06:27:07;;;;;;;;;;;;;;;;;;2098794;28;19968;-44
2022/07/29 06:28:08;;;;;;;;;;;;;;;;;;2099271;28;19941;-43
2022/07/29 06:29:10;;;;;;;;;;;;;;;;;;2099410;28;19967;-44
2022/07/29 06:30:11;;;;;;;;;;;;;;;;;;2099257;28;20019;-45
2022/07/29 06:31:12;;;;;;;;;;;;;;;;;;2098831;28;19935;-43
2022/07/29 06:32:13;;;;;;;;;;;;;;;;;;2099210;28;20436;-43
2022/07/29 06:33:14;;;;;;;;;;;;;;;;;;2098671;28;20164;-43
2022/07/29 06:34:15;;;;;;;;;;;;;;;;;;2099144;28;20066;-44
2022/07/29 06:35:17;;;;;;;;;;;;;;;;;;2098814;28;20333;-44
2022/07/29 06:36:38;;;;;;;;;;;;;;;;;;2098511;28;20297;-44
2022/07/29 06:37:40;;;;;;;;;;;;;;;;;;2098901;28;19931;-45
2022/07/29 06:38:41;;;;;;;;;;;;;;;;;;2098750;28;20035;-45
2022/07/29 06:39:47;;;;;;;;;;;;;;;;;;2098762;28;20395;-46
2022/07/29 06:41:00;;;;;;;;;;;;;;;;;;2098511;28;19974;-44
2022/07/29 06:42:01;;;;;;;;;;;;;;;;;;2100213;28;19928;-44
2022/07/29 06:43:02;;;;;;;;;;;;;;;;;;2106916;28;20363;-46
2022/07/29 06:44:04;;;;;;;;;;;;;;;;;;2107270;28;19924;-46
2022/07/29 06:45:05;;;;;;;;;;;;;;;;;;2107321;28;20381;-43
2022/07/29 06:46:09;;;;;;;;;;;;;;;;;;2107011;28;20369;-43
2022/07/29 06:47:11;;;;;;;;;;;;;;;;;;2107117;28;19931;-43
2022/07/29 06:48:11;;;;;;;;;;;;;;;;;;2107138;28;20456;-42
2022/07/29 06:49:13;;;;;;;;;;;;;;;;;;2107384;28;19924;-43
2022/07/29 06:50:14;;;;;;;;;;;;;;;;;;2107220;28;19924;-44
2022/07/29 06:51:16;;;;;;;;;;;;;;;;;;2106963;28;19963;-43
2022/07/29 06:52:17;;;;;;;;;;;;;;;;;;2107003;28;20019;-42
2022/07/29 06:53:18;;;;;;;;;;;;;;;;;;2107365;28;19932;-44
2022/07/29 06:54:19;;;;;;;;;;;;;;;;;;2107214;28;19928;-42
2022/07/29 06:55:19;;;;;;;;;;;;;;;;;;2107271;28;20024;-44
2022/07/29 06:56:25;;;;;;;;;;;;;;;;;;2106937;28;19985;-43
2022/07/29 06:57:26;;;;;;;;;;;;;;;;;;2106940;28;20506;-43
2022/07/29 06:58:27;;;;;;;;;;;;;;;;;;2106908;28;19928;-43
2022/07/29 06:59:28;;;;;;;;;;;;;;;;;;2107071;28;19973;-43
2022/07/29 07:00:35;;;;;;;;;;;;;;;;;;2107282;28;19925;-43
2022/07/29 07:01:36;;;;;;;;;;;;;;;;;;2107120;28;20003;-43
2022/07/29 07:02:37;;;;;;;;;;;;;;;;;;2107113;28;20385;-46
2022/07/29 07:03:38;;;;;;;;;;;;;;;;;;2107211;28;19924;-45